Plato — 8PRX — position and weather

sailwx.info

Track history (hours):
 
Tides and Currents Weather Stations Pressure Air Temp Water Temp Dewpoint Dewpoint Depression Visibility Wind Speed Wind Dir Waves Ship Positions

Plato

Last reported at 2016-Dec-07 21:30 UTC. Time now 2016-Dec-07 22:15 UTC.
Position N 53°36' W 000°01'.

Length 89 m; draft 5 m.

Type: Cargo ship. MMSI: 314189000.

Date/timePositionNaut miles runAvg speedWind from/ knotsBaromVisibWave heightAir tempDewpointWater temp
2016-Dec-07 21:30N 53°36' W 000°01'6 4.3
2016-Dec-07 20:03N 53°38' W 000°12'0 0.2
2016-Dec-07 19:33N 53°38' W 000°12'0 0.0
2016-Dec-07 18:33N 53°38' W 000°12'0 0.0
2016-Dec-07 17:33N 53°38' W 000°12'0 0.0
2016-Dec-07 16:33N 53°38' W 000°12'0 0.0
2016-Dec-07 15:33N 53°38' W 000°12'0 0.0
2016-Dec-07 14:27N 53°38' W 000°12'0 0.0
2016-Dec-07 13:30N 53°38' W 000°12'0 0.0
2016-Dec-07 12:33N 53°38' W 000°12'0 0.0
2016-Dec-07 11:33N 53°38' W 000°12'0 0.0
2016-Dec-07 10:30N 53°38' W 000°12'0 0.0
2016-Dec-07 09:33N 53°38' W 000°12'0 0.0
2016-Dec-07 08:30N 53°38' W 000°12'0 0.0
2016-Dec-07 07:30N 53°38' W 000°12'0 0.0
2016-Dec-07 06:33N 53°38' W 000°12'0 0.0
2016-Dec-07 05:33N 53°38' W 000°12'1 0.5
2016-Dec-07 04:34N 53°38' W 000°11'6 6.0
2016-Dec-07 03:33N 53°36' W 000°02'53 5.6
2016-Dec-06 18:07N 53°10' E 001°16'611.3
2016-Dec-06 17:33N 53°05' E 001°23'1111.5
2016-Dec-06 16:33N 52°57' E 001°35'79 9.6
2016-Dec-06 08:20N 51°53' E 002°52'1010.7
2016-Dec-06 07:24N 51°48' E 003°05'810.0
2016-Dec-06 06:33N 51°43' E 003°16'1110.8
2016-Dec-06 05:33N 51°34' E 003°25'10 9.7
2016-Dec-06 04:33N 51°26' E 003°35'8 8.0
2016-Dec-06 03:33N 51°22' E 003°46'7 7.1
2016-Dec-06 02:33N 51°24' E 003°57'4 4.5
2016-Dec-06 01:33N 51°22' E 004°04'8 7.6
2016-Dec-06 00:32N 51°21' E 004°16'5 5.0
2016-Dec-05 23:33N 51°17' E 004°20'0 0.2
2016-Dec-05 22:33N 51°17' E 004°20'2 2.3
2016-Dec-05 21:34N 51°16' E 004°24'1 0.5
2016-Dec-05 20:31N 51°15' E 004°24'0 0.0
2016-Dec-05 19:31N 51°15' E 004°24'0 0.0
2016-Dec-05 18:31N 51°15' E 004°24'0 0.0
2016-Dec-05 17:31N 51°15' E 004°24'0 0.0
2016-Dec-05 16:31N 51°15' E 004°24'0 0.0
2016-Dec-05 15:31N 51°15' E 004°24'0 0.0
2016-Dec-05 14:31N 51°15' E 004°24'0 0.0
2016-Dec-05 13:31N 51°15' E 004°24'0 0.0
2016-Dec-05 12:31N 51°15' E 004°24'0 0.0
2016-Dec-05 11:31N 51°15' E 004°24'0 0.0
2016-Dec-05 10:31N 51°15' E 004°24'0 0.0
2016-Dec-05 09:31N 51°15' E 004°24'0 0.0
2016-Dec-05 08:31N 51°15' E 004°24'0 0.0
2016-Dec-05 07:31N 51°15' E 004°24'0 0.0
2016-Dec-05 06:31N 51°15' E 004°24'0 0.0
2016-Dec-05 05:31N 51°15' E 004°24'0 0.0
2016-Dec-05 04:25N 51°15' E 004°24'0 0.0
2016-Dec-05 03:31N 51°15' E 004°24'0 0.0
2016-Dec-05 02:31N 51°15' E 004°24'0 0.0
2016-Dec-05 01:31N 51°15' E 004°24'0 0.0
2016-Dec-05 00:31N 51°15' E 004°24'0 0.0
2016-Dec-04 23:31N 51°15' E 004°24'0 0.0
2016-Dec-04 22:31N 51°15' E 004°24'0 0.0
2016-Dec-04 21:31N 51°15' E 004°24'0 0.0
2016-Dec-04 20:31N 51°15' E 004°24'0 0.0
2016-Dec-04 19:31N 51°15' E 004°24'0 0.0
2016-Dec-04 18:31N 51°15' E 004°24'0 0.0
2016-Dec-04 17:31N 51°15' E 004°24'0 0.0
2016-Dec-04 16:31N 51°15' E 004°24'0 0.0
2016-Dec-04 15:31N 51°15' E 004°24'0 0.0
2016-Dec-04 14:31N 51°15' E 004°24'0 0.0
2016-Dec-04 13:28N 51°15' E 004°24'0 0.0
2016-Dec-04 12:31N 51°15' E 004°24'0 0.0
2016-Dec-04 11:31N 51°15' E 004°24'0 0.0
2016-Dec-04 10:31N 51°15' E 004°24'0 0.0
2016-Dec-04 09:31N 51°15' E 004°24'0 0.0
2016-Dec-04 08:31N 51°15' E 004°24'0 0.0
2016-Dec-04 07:31N 51°15' E 004°24'0 0.0
2016-Dec-04 06:31N 51°15' E 004°24'0 0.0
2016-Dec-04 05:31N 51°15' E 004°24'0 0.0
2016-Dec-04 04:31N 51°15' E 004°24'0 0.0
2016-Dec-04 03:31N 51°15' E 004°24'0 0.0
2016-Dec-04 02:31N 51°15' E 004°24'0 0.0
2016-Dec-04 01:31N 51°15' E 004°24'0 0.0
2016-Dec-04 00:31N 51°15' E 004°24'0 0.0
2016-Dec-03 23:31N 51°15' E 004°24'0 0.0
2016-Dec-03 22:31N 51°15' E 004°24'0 0.0
2016-Dec-03 21:31N 51°15' E 004°24'0 0.0
2016-Dec-03 20:31N 51°15' E 004°24'0 0.0
2016-Dec-03 19:31N 51°15' E 004°24'0 0.0
2016-Dec-03 18:31N 51°15' E 004°24'0 0.0
2016-Dec-03 17:31N 51°15' E 004°24'0 0.0
2016-Dec-03 16:31N 51°15' E 004°24'0 0.0
2016-Dec-03 15:31N 51°15' E 004°24'0 0.0
2016-Dec-03 14:31N 51°15' E 004°24'0 0.0
2016-Dec-03 13:31N 51°15' E 004°24'0 0.0
2016-Dec-03 12:31N 51°15' E 004°24'0 0.0
2016-Dec-03 11:31N 51°15' E 004°24'0 0.0
2016-Dec-03 10:25N 51°15' E 004°24'0 0.0
2016-Dec-03 09:31N 51°15' E 004°24'0 0.0
2016-Dec-03 08:31N 51°15' E 004°24'0 0.0
2016-Dec-03 07:31N 51°15' E 004°24'0 0.0
2016-Dec-03 06:31N 51°15' E 004°24'0 0.0
2016-Dec-03 05:31N 51°15' E 004°24'0 0.0
2016-Dec-03 04:31N 51°15' E 004°24'0 0.0
2016-Dec-03 03:31N 51°15' E 004°24'0 0.0
2016-Dec-03 02:31N 51°15' E 004°24'0 0.0
2016-Dec-03 01:31N 51°15' E 004°24'0 0.0
2016-Dec-03 00:31N 51°15' E 004°24'0 0.0
2016-Dec-02 23:31N 51°15' E 004°24'0 0.0
2016-Dec-02 22:31N 51°15' E 004°24'0 0.0
2016-Dec-02 21:31N 51°15' E 004°24'0 0.0
2016-Dec-02 20:31N 51°15' E 004°24'0 0.0
2016-Dec-02 19:34N 51°15' E 004°24'0 0.0
2016-Dec-02 18:31N 51°15' E 004°24'0 0.0
2016-Dec-02 17:34N 51°15' E 004°24'0 0.0
2016-Dec-02 16:33N 51°15' E 004°24'0 0.0
2016-Dec-02 15:33N 51°15' E 004°24'0 0.0
2016-Dec-02 14:33N 51°15' E 004°24'0 0.0
2016-Dec-02 13:33N 51°15' E 004°24'0 0.0
2016-Dec-02 12:33N 51°15' E 004°24'0 0.0
2016-Dec-02 11:33N 51°15' E 004°24'0 0.0
2016-Dec-02 10:33N 51°15' E 004°24'0 0.0
2016-Dec-02 09:33N 51°15' E 004°24'0 0.0
2016-Dec-02 08:33N 51°15' E 004°24'0 0.0
2016-Dec-02 07:33N 51°15' E 004°24'0 0.0
2016-Dec-02 06:33N 51°15' E 004°24'0 0.0
2016-Dec-02 05:33N 51°15' E 004°24'0 0.0
2016-Dec-02 04:33N 51°15' E 004°24'0 0.0
2016-Dec-02 03:33N 51°15' E 004°24'0 0.0
2016-Dec-02 02:33N 51°15' E 004°24'0 0.0
2016-Dec-02 01:33N 51°15' E 004°24'0 0.0
2016-Dec-02 00:33N 51°15' E 004°24'0 0.0
2016-Dec-01 23:33N 51°15' E 004°24'0 0.0
2016-Dec-01 22:33N 51°15' E 004°24'0 0.0
2016-Dec-01 21:33N 51°15' E 004°24'0 0.0
2016-Dec-01 20:33N 51°15' E 004°24'0 0.0
2016-Dec-01 19:33N 51°15' E 004°24'0 0.0
2016-Dec-01 18:33N 51°15' E 004°24'1 0.8
2016-Dec-01 17:33N 51°16' E 004°23'2 2.3
2016-Dec-01 16:34N 51°17' E 004°20'2 2.2
2016-Dec-01 15:34N 51°18' E 004°17'8 7.5
2016-Dec-01 14:33N 51°22' E 004°07'8 8.5
2016-Dec-01 13:33N 51°21' E 003°54'3 3.4
2016-Dec-01 12:34N 51°20' E 003°49'3 3.1
2016-Dec-01 11:34N 51°17' E 003°50'8 8.0
2016-Dec-01 10:33N 51°09' E 003°47'1 0.3
2016-Dec-01 08:31N 51°09' E 003°48'0 0.0
2016-Dec-01 07:12N 51°09' E 003°48'0 0.0
2016-Dec-01 03:14N 51°09' E 003°48'0 0.0
2016-Dec-01 01:29N 51°09' E 003°48'0 0.0
2016-Dec-01 00:05N 51°09' E 003°48'0 0.0
2016-Nov-30 22:17N 51°09' E 003°48'0 0.0
2016-Nov-30 20:04N 51°09' E 003°48'0 0.0
2016-Nov-30 19:33N 51°09' E 003°48'0 0.0
2016-Nov-30 18:30N 51°09' E 003°48'0 0.0
2016-Nov-30 17:30N 51°09' E 003°48'0 0.0
2016-Nov-30 16:31N 51°09' E 003°48'0 0.0
2016-Nov-30 15:30N 51°09' E 003°48'0 0.0
2016-Nov-30 14:33N 51°09' E 003°48'0 0.0
2016-Nov-30 13:11N 51°09' E 003°48'0 0.0
2016-Nov-30 12:29N 51°09' E 003°48'1 0.8
2016-Nov-30 11:33N 51°09' E 003°47'7 7.0
2016-Nov-30 10:34N 51°16' E 003°50'4 3.9
2016-Nov-30 09:34N 51°20' E 003°49'4 4.4
2016-Nov-30 08:33N 51°22' E 003°44'9 8.9
2016-Nov-30 07:33N 51°27' E 003°32'10 9.4
2016-Nov-30 06:30N 51°36' E 003°23'8 8.4
2016-Nov-30 05:33N 51°42' E 003°15'7 6.9
2016-Nov-30 04:30N 51°49' E 003°21'0 0.0
2016-Nov-29 23:21N 51°48' E 003°21'0 0.0
2016-Nov-29 21:30N 51°48' E 003°21'0 0.0
2016-Nov-29 20:33N 51°48' E 003°21'0 0.0
2016-Nov-29 19:18N 51°48' E 003°21'0 0.0
2016-Nov-29 18:21N 51°48' E 003°21'0 0.0
2016-Nov-29 16:30N 51°49' E 003°21'0 0.0
2016-Nov-29 15:33N 51°49' E 003°21'0 0.0
2016-Nov-29 14:24N 51°49' E 003°21'0 0.0
2016-Nov-29 12:09N 51°48' E 003°21'0 0.0
2016-Nov-29 09:24N 51°48' E 003°21'0 0.0
2016-Nov-29 08:33N 51°48' E 003°21'0 0.0
2016-Nov-29 07:33N 51°48' E 003°21'0 0.0
2016-Nov-29 06:24N 51°48' E 003°21'0 0.0
2016-Nov-29 05:33N 51°48' E 003°21'0 0.0
2016-Nov-29 04:27N 51°49' E 003°21'  
Track history (hours):
 
Tides and Currents Weather Stations Pressure Air Temp Water Temp Dewpoint Dewpoint Depression Visibility Wind Speed Wind Dir Waves Ship Positions

Plato

Last reported at 2016-Dec-07 21:30 UTC. Time now 2016-Dec-07 22:15 UTC.
Position N 53°36' W 000°01'.

Length 89 m; draft 5 m.

Type: Cargo ship. MMSI: 314189000.

Date/timePositionNaut miles runAvg speedWind from/ knotsBaromVisibWave heightAir tempDewpointWater temp
2016-Dec-07 21:30N 53°36' W 000°01'6 4.3
2016-Dec-07 20:03N 53°38' W 000°12'0 0.2
2016-Dec-07 19:33N 53°38' W 000°12'0 0.0
2016-Dec-07 18:33N 53°38' W 000°12'0 0.0
2016-Dec-07 17:33N 53°38' W 000°12'0 0.0
2016-Dec-07 16:33N 53°38' W 000°12'0 0.0
2016-Dec-07 15:33N 53°38' W 000°12'0 0.0
2016-Dec-07 14:27N 53°38' W 000°12'0 0.0
2016-Dec-07 13:30N 53°38' W 000°12'0 0.0
2016-Dec-07 12:33N 53°38' W 000°12'0 0.0
2016-Dec-07 11:33N 53°38' W 000°12'0 0.0
2016-Dec-07 10:30N 53°38' W 000°12'0 0.0
2016-Dec-07 09:33N 53°38' W 000°12'0 0.0
2016-Dec-07 08:30N 53°38' W 000°12'0 0.0
2016-Dec-07 07:30N 53°38' W 000°12'0 0.0
2016-Dec-07 06:33N 53°38' W 000°12'0 0.0
2016-Dec-07 05:33N 53°38' W 000°12'1 0.5
2016-Dec-07 04:34N 53°38' W 000°11'6 6.0
2016-Dec-07 03:33N 53°36' W 000°02'53 5.6
2016-Dec-06 18:07N 53°10' E 001°16'611.3
2016-Dec-06 17:33N 53°05' E 001°23'1111.5
2016-Dec-06 16:33N 52°57' E 001°35'79 9.6
2016-Dec-06 08:20N 51°53' E 002°52'1010.7
2016-Dec-06 07:24N 51°48' E 003°05'810.0
2016-Dec-06 06:33N 51°43' E 003°16'1110.8
2016-Dec-06 05:33N 51°34' E 003°25'10 9.7
2016-Dec-06 04:33N 51°26' E 003°35'8 8.0
2016-Dec-06 03:33N 51°22' E 003°46'7 7.1
2016-Dec-06 02:33N 51°24' E 003°57'4 4.5
2016-Dec-06 01:33N 51°22' E 004°04'8 7.6
2016-Dec-06 00:32N 51°21' E 004°16'5 5.0
2016-Dec-05 23:33N 51°17' E 004°20'0 0.2
2016-Dec-05 22:33N 51°17' E 004°20'2 2.3
2016-Dec-05 21:34N 51°16' E 004°24'1 0.5
2016-Dec-05 20:31N 51°15' E 004°24'0 0.0
2016-Dec-05 19:31N 51°15' E 004°24'0 0.0
2016-Dec-05 18:31N 51°15' E 004°24'0 0.0
2016-Dec-05 17:31N 51°15' E 004°24'0 0.0
2016-Dec-05 16:31N 51°15' E 004°24'0 0.0
2016-Dec-05 15:31N 51°15' E 004°24'0 0.0
2016-Dec-05 14:31N 51°15' E 004°24'0 0.0
2016-Dec-05 13:31N 51°15' E 004°24'0 0.0
2016-Dec-05 12:31N 51°15' E 004°24'0 0.0
2016-Dec-05 11:31N 51°15' E 004°24'0 0.0
2016-Dec-05 10:31N 51°15' E 004°24'0 0.0
2016-Dec-05 09:31N 51°15' E 004°24'0 0.0
2016-Dec-05 08:31N 51°15' E 004°24'0 0.0
2016-Dec-05 07:31N 51°15' E 004°24'0 0.0
2016-Dec-05 06:31N 51°15' E 004°24'0 0.0
2016-Dec-05 05:31N 51°15' E 004°24'0 0.0
2016-Dec-05 04:25N 51°15' E 004°24'0 0.0
2016-Dec-05 03:31N 51°15' E 004°24'0 0.0
2016-Dec-05 02:31N 51°15' E 004°24'0 0.0
2016-Dec-05 01:31N 51°15' E 004°24'0 0.0
2016-Dec-05 00:31N 51°15' E 004°24'0 0.0
2016-Dec-04 23:31N 51°15' E 004°24'0 0.0
2016-Dec-04 22:31N 51°15' E 004°24'0 0.0
2016-Dec-04 21:31N 51°15' E 004°24'0 0.0
2016-Dec-04 20:31N 51°15' E 004°24'0 0.0
2016-Dec-04 19:31N 51°15' E 004°24'0 0.0
2016-Dec-04 18:31N 51°15' E 004°24'0 0.0
2016-Dec-04 17:31N 51°15' E 004°24'0 0.0
2016-Dec-04 16:31N 51°15' E 004°24'0 0.0
2016-Dec-04 15:31N 51°15' E 004°24'0 0.0
2016-Dec-04 14:31N 51°15' E 004°24'0 0.0
2016-Dec-04 13:28N 51°15' E 004°24'0 0.0
2016-Dec-04 12:31N 51°15' E 004°24'0 0.0
2016-Dec-04 11:31N 51°15' E 004°24'0 0.0
2016-Dec-04 10:31N 51°15' E 004°24'0 0.0
2016-Dec-04 09:31N 51°15' E 004°24'0 0.0
2016-Dec-04 08:31N 51°15' E 004°24'0 0.0
2016-Dec-04 07:31N 51°15' E 004°24'0 0.0
2016-Dec-04 06:31N 51°15' E 004°24'0 0.0
2016-Dec-04 05:31N 51°15' E 004°24'0 0.0
2016-Dec-04 04:31N 51°15' E 004°24'0 0.0
2016-Dec-04 03:31N 51°15' E 004°24'0 0.0
2016-Dec-04 02:31N 51°15' E 004°24'0 0.0
2016-Dec-04 01:31N 51°15' E 004°24'0 0.0
2016-Dec-04 00:31N 51°15' E 004°24'0 0.0
2016-Dec-03 23:31N 51°15' E 004°24'0 0.0
2016-Dec-03 22:31N 51°15' E 004°24'0 0.0
2016-Dec-03 21:31N 51°15' E 004°24'0 0.0
2016-Dec-03 20:31N 51°15' E 004°24'0 0.0
2016-Dec-03 19:31N 51°15' E 004°24'0 0.0
2016-Dec-03 18:31N 51°15' E 004°24'0 0.0
2016-Dec-03 17:31N 51°15' E 004°24'0 0.0
2016-Dec-03 16:31N 51°15' E 004°24'0 0.0
2016-Dec-03 15:31N 51°15' E 004°24'0 0.0
2016-Dec-03 14:31N 51°15' E 004°24'0 0.0
2016-Dec-03 13:31N 51°15' E 004°24'0 0.0
2016-Dec-03 12:31N 51°15' E 004°24'0 0.0
2016-Dec-03 11:31N 51°15' E 004°24'0 0.0
2016-Dec-03 10:25N 51°15' E 004°24'0 0.0
2016-Dec-03 09:31N 51°15' E 004°24'0 0.0
2016-Dec-03 08:31N 51°15' E 004°24'0 0.0
2016-Dec-03 07:31N 51°15' E 004°24'0 0.0
2016-Dec-03 06:31N 51°15' E 004°24'0 0.0
2016-Dec-03 05:31N 51°15' E 004°24'0 0.0
2016-Dec-03 04:31N 51°15' E 004°24'0 0.0
2016-Dec-03 03:31N 51°15' E 004°24'0 0.0
2016-Dec-03 02:31N 51°15' E 004°24'0 0.0
2016-Dec-03 01:31N 51°15' E 004°24'0 0.0
2016-Dec-03 00:31N 51°15' E 004°24'0 0.0
2016-Dec-02 23:31N 51°15' E 004°24'0 0.0
2016-Dec-02 22:31N 51°15' E 004°24'0 0.0
2016-Dec-02 21:31N 51°15' E 004°24'0 0.0
2016-Dec-02 20:31N 51°15' E 004°24'0 0.0
2016-Dec-02 19:34N 51°15' E 004°24'0 0.0
2016-Dec-02 18:31N 51°15' E 004°24'0 0.0
2016-Dec-02 17:34N 51°15' E 004°24'0 0.0
2016-Dec-02 16:33N 51°15' E 004°24'0 0.0
2016-Dec-02 15:33N 51°15' E 004°24'0 0.0
2016-Dec-02 14:33N 51°15' E 004°24'0 0.0
2016-Dec-02 13:33N 51°15' E 004°24'0 0.0
2016-Dec-02 12:33N 51°15' E 004°24'0 0.0
2016-Dec-02 11:33N 51°15' E 004°24'0 0.0
2016-Dec-02 10:33N 51°15' E 004°24'0 0.0
2016-Dec-02 09:33N 51°15' E 004°24'0 0.0
2016-Dec-02 08:33N 51°15' E 004°24'0 0.0
2016-Dec-02 07:33N 51°15' E 004°24'0 0.0
2016-Dec-02 06:33N 51°15' E 004°24'0 0.0
2016-Dec-02 05:33N 51°15' E 004°24'0 0.0
2016-Dec-02 04:33N 51°15' E 004°24'0 0.0
2016-Dec-02 03:33N 51°15' E 004°24'0 0.0
2016-Dec-02 02:33N 51°15' E 004°24'0 0.0
2016-Dec-02 01:33N 51°15' E 004°24'0 0.0
2016-Dec-02 00:33N 51°15' E 004°24'0 0.0
2016-Dec-01 23:33N 51°15' E 004°24'0 0.0
2016-Dec-01 22:33N 51°15' E 004°24'0 0.0
2016-Dec-01 21:33N 51°15' E 004°24'0 0.0
2016-Dec-01 20:33N 51°15' E 004°24'0 0.0
2016-Dec-01 19:33N 51°15' E 004°24'0 0.0
2016-Dec-01 18:33N 51°15' E 004°24'1 0.8
2016-Dec-01 17:33N 51°16' E 004°23'2 2.3
2016-Dec-01 16:34N 51°17' E 004°20'2 2.2
2016-Dec-01 15:34N 51°18' E 004°17'8 7.5
2016-Dec-01 14:33N 51°22' E 004°07'8 8.5
2016-Dec-01 13:33N 51°21' E 003°54'3 3.4
2016-Dec-01 12:34N 51°20' E 003°49'3 3.1
2016-Dec-01 11:34N 51°17' E 003°50'8 8.0
2016-Dec-01 10:33N 51°09' E 003°47'1 0.3
2016-Dec-01 08:31N 51°09' E 003°48'0 0.0
2016-Dec-01 07:12N 51°09' E 003°48'0 0.0
2016-Dec-01 03:14N 51°09' E 003°48'0 0.0
2016-Dec-01 01:29N 51°09' E 003°48'0 0.0
2016-Dec-01 00:05N 51°09' E 003°48'0 0.0
2016-Nov-30 22:17N 51°09' E 003°48'0 0.0
2016-Nov-30 20:04N 51°09' E 003°48'0 0.0
2016-Nov-30 19:33N 51°09' E 003°48'0 0.0
2016-Nov-30 18:30N 51°09' E 003°48'0 0.0
2016-Nov-30 17:30N 51°09' E 003°48'0 0.0
2016-Nov-30 16:31N 51°09' E 003°48'0 0.0
2016-Nov-30 15:30N 51°09' E 003°48'0 0.0
2016-Nov-30 14:33N 51°09' E 003°48'0 0.0
2016-Nov-30 13:11N 51°09' E 003°48'0 0.0
2016-Nov-30 12:29N 51°09' E 003°48'1 0.8
2016-Nov-30 11:33N 51°09' E 003°47'7 7.0
2016-Nov-30 10:34N 51°16' E 003°50'4 3.9
2016-Nov-30 09:34N 51°20' E 003°49'4 4.4
2016-Nov-30 08:33N 51°22' E 003°44'9 8.9
2016-Nov-30 07:33N 51°27' E 003°32'10 9.4
2016-Nov-30 06:30N 51°36' E 003°23'8 8.4
2016-Nov-30 05:33N 51°42' E 003°15'7 6.9
2016-Nov-30 04:30N 51°49' E 003°21'0 0.0
2016-Nov-29 23:21N 51°48' E 003°21'0 0.0
2016-Nov-29 21:30N 51°48' E 003°21'0 0.0
2016-Nov-29 20:33N 51°48' E 003°21'0 0.0
2016-Nov-29 19:18N 51°48' E 003°21'0 0.0
2016-Nov-29 18:21N 51°48' E 003°21'0 0.0
2016-Nov-29 16:30N 51°49' E 003°21'0 0.0
2016-Nov-29 15:33N 51°49' E 003°21'0 0.0
2016-Nov-29 14:24N 51°49' E 003°21'0 0.0
2016-Nov-29 12:09N 51°48' E 003°21'0 0.0
2016-Nov-29 09:24N 51°48' E 003°21'0 0.0
2016-Nov-29 08:33N 51°48' E 003°21'0 0.0
2016-Nov-29 07:33N 51°48' E 003°21'0 0.0
2016-Nov-29 06:24N 51°48' E 003°21'0 0.0
2016-Nov-29 05:33N 51°48' E 003°21'0 0.0
2016-Nov-29 04:27N 51°49' E 003°21'  

Dump ship's entire track history